createdAt,value
2019-04-03T00:00:42.132Z,24.86
2019-04-03T00:03:16.097Z,24.87
2019-04-03T00:05:49.899Z,24.85
2019-04-03T00:08:24.030Z,24.86
2019-04-03T00:10:57.794Z,24.86
2019-04-03T00:13:32.118Z,24.86
2019-04-03T00:16:05.888Z,24.85
2019-04-03T00:18:39.627Z,24.87
2019-04-03T00:21:13.360Z,24.86
2019-04-03T00:23:47.194Z,24.86
2019-04-03T00:26:22.559Z,24.86
2019-04-03T00:28:56.509Z,24.85
2019-04-03T00:31:30.226Z,24.85
2019-04-03T00:34:03.965Z,24.85
2019-04-03T00:36:37.741Z,24.84
2019-04-03T00:39:11.478Z,24.83
2019-04-03T00:41:45.193Z,24.84
2019-04-03T00:44:18.922Z,24.85
2019-04-03T00:46:55.173Z,24.85
2019-04-03T00:49:28.303Z,24.86
2019-04-03T00:52:02.347Z,24.84
2019-04-03T00:54:35.949Z,24.84
2019-04-03T00:57:09.714Z,24.83
2019-04-03T00:59:43.345Z,24.83
2019-04-03T01:02:17.067Z,24.83
2019-04-03T01:04:50.954Z,24.83
2019-04-03T01:07:24.726Z,24.83
2019-04-03T01:09:59.490Z,24.83
2019-04-03T01:12:33.931Z,24.83
2019-04-03T01:15:07.831Z,24.84
2019-04-03T01:17:41.844Z,24.83
2019-04-03T01:20:15.752Z,24.83
2019-04-03T01:22:49.542Z,24.82
2019-04-03T01:25:23.268Z,24.82
2019-04-03T01:27:56.999Z,24.82
2019-04-03T01:30:30.734Z,24.83
2019-04-03T01:33:04.656Z,24.82
2019-04-03T01:35:38.374Z,24.81
2019-04-03T01:38:12.436Z,24.82
2019-04-03T01:40:50.225Z,24.82
2019-04-03T01:43:24.490Z,24.81
2019-04-03T01:45:58.348Z,24.81
2019-04-03T01:48:32.584Z,24.81
2019-04-03T01:51:06.393Z,24.81
2019-04-03T01:53:40.084Z,24.80
2019-04-03T01:56:13.867Z,24.81
2019-04-03T01:58:47.807Z,24.80
2019-04-03T02:01:21.518Z,24.80
2019-04-03T02:03:56.859Z,24.80
2019-04-03T02:06:30.568Z,24.80
2019-04-03T02:09:04.996Z,24.80
2019-04-03T02:11:38.735Z,24.80
2019-04-03T02:14:12.494Z,24.79
2019-04-03T02:16:46.250Z,24.80
2019-04-03T02:19:20.349Z,24.79
2019-04-03T02:21:54.155Z,24.79
2019-04-03T02:24:27.727Z,24.78
2019-04-03T02:27:03.076Z,24.79
2019-04-03T02:29:37.929Z,24.79
2019-04-03T02:32:12.962Z,24.78
2019-04-03T02:34:46.770Z,24.78
2019-04-03T02:37:20.640Z,24.77
2019-04-03T02:39:59.134Z,24.77
2019-04-03T02:42:29.879Z,24.77
2019-04-03T02:45:03.601Z,24.78
2019-04-03T02:47:37.398Z,24.77
2019-04-03T02:50:13.971Z,24.77
2019-04-03T02:52:46.641Z,24.77
2019-04-03T02:55:20.388Z,24.78
2019-04-03T02:57:54.153Z,24.78
2019-04-03T03:00:31.767Z,24.77
2019-04-03T03:03:03.214Z,24.76
2019-04-03T03:05:37.080Z,24.76
2019-04-03T03:08:10.828Z,24.77
2019-04-03T03:10:44.589Z,24.77
2019-04-03T03:13:18.460Z,24.78
2019-04-03T03:15:52.180Z,24.76
2019-04-03T03:18:27.206Z,24.76
2019-04-03T03:21:01.912Z,24.76
2019-04-03T03:23:35.821Z,24.75
2019-04-03T03:26:09.844Z,24.75
2019-04-03T03:28:46.914Z,24.74
2019-04-03T03:31:35.742Z,24.74
2019-04-03T03:34:00.933Z,24.74
2019-04-03T03:36:31.191Z,24.74
2019-04-03T03:39:06.441Z,24.73
2019-04-03T03:41:43.694Z,24.74
2019-04-03T03:44:18.229Z,24.73
2019-04-03T03:46:52.240Z,24.74
2019-04-03T03:49:26.895Z,24.74
2019-04-03T03:52:04.515Z,24.73
2019-04-03T03:54:38.004Z,24.73
2019-04-03T03:57:11.712Z,24.73
2019-04-03T03:59:49.405Z,24.73
2019-04-03T04:02:21.047Z,24.73
2019-04-03T04:04:55.888Z,24.72
2019-04-03T04:07:30.280Z,24.73
2019-04-03T04:10:04.378Z,24.72
2019-04-03T04:12:41.179Z,24.72
2019-04-03T04:15:13.774Z,24.71
2019-04-03T04:17:50.474Z,24.72
2019-04-03T04:20:23.369Z,24.72
2019-04-03T04:22:57.394Z,24.72
2019-04-03T04:25:31.131Z,24.72
2019-04-03T04:28:04.785Z,24.71
2019-04-03T04:30:38.606Z,24.72
2019-04-03T04:33:12.595Z,24.72
2019-04-03T04:35:46.475Z,24.72
2019-04-03T04:38:20.222Z,24.71
2019-04-03T04:40:54.004Z,24.72
2019-04-03T04:43:27.689Z,24.70
2019-04-03T04:46:01.472Z,24.72
2019-04-03T04:48:35.250Z,24.71
2019-04-03T04:51:09.002Z,24.71
2019-04-03T04:53:42.884Z,24.71
2019-04-03T04:56:16.600Z,24.71
2019-04-03T04:58:50.407Z,24.71
2019-04-03T05:01:24.251Z,24.70
2019-04-03T05:03:58.402Z,24.71
2019-04-03T05:06:32.410Z,24.71
2019-04-03T05:09:07.795Z,24.70
2019-04-03T05:11:41.541Z,24.71
2019-04-03T05:14:17.149Z,24.71
2019-04-03T05:16:51.129Z,24.73
2019-04-03T05:19:24.834Z,24.74
2019-04-03T05:21:58.874Z,24.77
2019-04-03T05:24:33.048Z,24.75
2019-04-03T05:27:07.950Z,24.77
2019-04-03T05:29:42.174Z,24.79
2019-04-03T05:32:15.924Z,24.80
2019-04-03T05:34:49.698Z,24.80
2019-04-03T05:37:23.834Z,24.81
2019-04-03T05:39:57.836Z,24.80
2019-04-03T05:42:32.088Z,24.82
2019-04-03T05:45:06.511Z,24.81
2019-04-03T05:47:40.471Z,24.81
2019-04-03T05:50:14.657Z,24.82
2019-04-03T05:52:48.366Z,24.82
2019-04-03T05:55:22.126Z,24.82
2019-04-03T05:57:55.891Z,24.82
2019-04-03T06:00:29.663Z,24.83
2019-04-03T06:03:05.297Z,24.81
2019-04-03T06:05:40.151Z,24.83
2019-04-03T06:08:13.925Z,24.86
2019-04-03T06:10:47.695Z,24.85
2019-04-03T06:13:21.706Z,24.85
2019-04-03T06:15:55.330Z,24.86
2019-04-03T06:18:31.597Z,24.89
2019-04-03T06:21:06.163Z,24.79
2019-04-03T06:23:40.015Z,24.82
2019-04-03T06:26:13.854Z,24.84
2019-04-03T06:28:47.897Z,24.82
2019-04-03T06:31:21.730Z,24.84
2019-04-03T06:33:55.482Z,24.85
2019-04-03T06:36:29.248Z,24.84
2019-04-03T06:39:04.727Z,24.86
2019-04-03T06:41:38.456Z,24.85
2019-04-03T06:44:12.722Z,24.83
2019-04-03T06:46:46.858Z,24.87
2019-04-03T06:49:20.856Z,24.84
2019-04-03T06:51:54.558Z,24.84
2019-04-03T06:54:31.054Z,24.86
2019-04-03T06:57:03.959Z,24.85
2019-04-03T06:59:37.744Z,24.85
2019-04-03T07:02:12.095Z,24.85
2019-04-03T07:04:45.935Z,24.86
2019-04-03T07:07:32.029Z,24.88
2019-04-03T07:09:55.696Z,24.88
2019-04-03T07:12:29.734Z,24.88
2019-04-03T07:15:03.634Z,24.88
2019-04-03T07:17:37.423Z,24.88
2019-04-03T07:20:18.630Z,24.89
2019-04-03T07:22:49.170Z,24.90
2019-04-03T07:25:22.872Z,24.90
2019-04-03T07:27:56.724Z,24.90
2019-04-03T07:30:30.506Z,24.90
2019-04-03T07:33:06.238Z,24.90
2019-04-03T07:35:40.668Z,24.91
2019-04-03T07:38:14.375Z,24.89
2019-04-03T07:40:50.803Z,24.89
2019-04-03T07:43:26.143Z,24.90
2019-04-03T07:45:59.069Z,24.91
2019-04-03T07:48:33.594Z,24.91
2019-04-03T07:51:07.798Z,24.89
2019-04-03T07:53:41.912Z,24.91
2019-04-03T07:56:15.823Z,24.93
2019-04-03T07:58:51.157Z,24.91
2019-04-03T08:01:25.256Z,24.91
2019-04-03T08:03:58.946Z,24.92
2019-04-03T08:06:34.953Z,24.93
2019-04-03T08:09:10.489Z,24.93
2019-04-03T08:11:45.669Z,24.93
2019-04-03T08:14:19.982Z,24.90
2019-04-03T08:16:56.601Z,24.91
2019-04-03T08:19:29.923Z,24.90
2019-04-03T08:22:03.714Z,24.88
2019-04-03T08:24:39.227Z,24.88
2019-04-03T08:27:13.020Z,24.89
2019-04-03T08:29:46.763Z,24.89
2019-04-03T08:32:20.649Z,24.88
2019-04-03T08:34:55.131Z,24.89
2019-04-03T08:37:31.681Z,24.88
2019-04-03T08:40:04.809Z,24.88
2019-04-03T08:42:39.145Z,24.87
2019-04-03T08:45:12.964Z,24.87
2019-04-03T08:47:46.967Z,24.89
2019-04-03T08:50:20.622Z,24.88
2019-04-03T08:52:54.501Z,24.89
2019-04-03T08:55:29.587Z,24.90
2019-04-03T08:58:03.472Z,24.88
2019-04-03T09:00:37.383Z,24.90
2019-04-03T09:03:12.300Z,24.89
2019-04-03T09:05:50.126Z,24.90
2019-04-03T09:08:23.083Z,24.90
2019-04-03T09:10:56.933Z,24.91
2019-04-03T09:13:30.599Z,24.91
2019-04-03T09:16:04.571Z,24.91
2019-04-03T09:18:38.711Z,24.91
2019-04-03T09:21:15.144Z,24.92
2019-04-03T09:23:48.838Z,24.93
2019-04-03T09:26:22.505Z,24.93
2019-04-03T09:28:56.276Z,24.94
2019-04-03T09:31:30.094Z,24.93
2019-04-03T09:34:03.885Z,24.94
2019-04-03T09:36:37.663Z,24.95
2019-04-03T09:39:14.500Z,24.96
2019-04-03T09:41:48.869Z,24.97
2019-04-03T09:44:25.452Z,24.96
2019-04-03T09:47:01.108Z,24.98
2019-04-03T09:49:35.069Z,24.99
2019-04-03T09:52:08.812Z,24.98
2019-04-03T09:54:43.100Z,24.97
2019-04-03T09:57:16.856Z,24.97
2019-04-03T09:59:52.606Z,24.96
2019-04-03T10:02:27.679Z,24.96
2019-04-03T10:05:02.352Z,24.96
2019-04-03T10:07:37.102Z,24.95
2019-04-03T10:10:12.072Z,24.95
2019-04-03T10:12:48.852Z,24.94
2019-04-03T10:15:22.890Z,24.94
2019-04-03T10:17:56.696Z,24.96
2019-04-03T10:20:30.857Z,24.95
2019-04-03T10:23:05.764Z,24.96
2019-04-03T10:25:39.728Z,24.96
2019-04-03T10:28:14.783Z,24.96
2019-04-03T10:30:52.015Z,24.95
2019-04-03T10:33:24.487Z,24.97
2019-04-03T10:35:58.272Z,24.96
2019-04-03T10:38:32.109Z,24.98
2019-04-03T10:41:06.180Z,24.97
2019-04-03T10:43:39.954Z,24.96
2019-04-03T10:46:14.233Z,24.96
2019-04-03T10:48:48.277Z,24.95
2019-04-03T10:51:22.480Z,24.97
2019-04-03T10:53:56.233Z,24.97
2019-04-03T10:56:31.178Z,24.96
2019-04-03T10:59:11.504Z,24.96
2019-04-03T11:01:42.115Z,24.97
2019-04-03T11:04:16.028Z,24.97
2019-04-03T11:06:49.698Z,24.96
2019-04-03T11:09:23.464Z,24.97
2019-04-03T11:11:58.266Z,24.98
2019-04-03T11:14:33.193Z,24.98
2019-04-03T11:17:07.145Z,24.97
2019-04-03T11:19:42.996Z,24.98
2019-04-03T11:22:16.803Z,24.98
2019-04-03T11:24:51.908Z,24.98
2019-04-03T11:27:40.411Z,24.97
2019-04-03T11:30:01.949Z,24.97
2019-04-03T11:32:36.160Z,24.98
2019-04-03T11:35:10.583Z,24.99
2019-04-03T11:37:44.367Z,24.59
2019-04-03T11:40:18.808Z,24.78
2019-04-03T11:42:53.895Z,24.86
2019-04-03T11:45:29.396Z,24.90
2019-04-03T11:48:04.149Z,24.91
2019-04-03T11:50:39.661Z,24.93
2019-04-03T11:53:13.727Z,24.94
2019-04-03T11:55:47.674Z,24.93
2019-04-03T11:58:23.589Z,24.94
2019-04-03T12:00:57.815Z,24.95
2019-04-03T12:03:32.100Z,24.95
2019-04-03T12:06:06.159Z,24.95
2019-04-03T12:08:40.328Z,24.95
2019-04-03T12:11:14.090Z,24.96
2019-04-03T12:13:48.668Z,24.95
2019-04-03T12:16:24.782Z,24.96
2019-04-03T12:18:58.365Z,24.98
2019-04-03T12:21:32.474Z,24.97
2019-04-03T12:24:06.297Z,24.97
2019-04-03T12:26:42.457Z,24.98
2019-04-03T12:29:15.844Z,24.98
2019-04-03T12:31:49.702Z,24.98
2019-04-03T12:34:23.917Z,24.97
2019-04-03T12:36:58.067Z,24.98
2019-04-03T12:39:32.335Z,24.98
2019-04-03T12:42:08.302Z,24.97
2019-04-03T12:44:43.607Z,24.98
2019-04-03T12:47:17.320Z,24.99
2019-04-03T12:49:53.389Z,25.00
2019-04-03T12:52:26.762Z,24.98
2019-04-03T12:55:00.872Z,24.98
2019-04-03T12:57:34.577Z,24.97
2019-04-03T13:00:11.452Z,24.96
2019-04-03T13:02:52.432Z,24.95
2019-04-03T13:05:26.853Z,24.96
2019-04-03T13:08:00.897Z,24.97
2019-04-03T13:10:41.799Z,24.96
2019-04-03T13:13:10.362Z,24.98
2019-04-03T13:15:44.138Z,24.98
2019-04-03T13:18:19.909Z,24.98
2019-04-03T13:20:53.749Z,24.97
2019-04-03T13:23:27.670Z,24.97
2019-04-03T13:26:01.491Z,24.98
2019-04-03T13:28:36.767Z,24.99
2019-04-03T13:31:10.928Z,24.99
2019-04-03T13:33:44.733Z,24.99
2019-04-03T13:36:19.610Z,24.99
2019-04-03T13:38:53.661Z,24.99
2019-04-03T13:41:27.385Z,24.98
2019-04-03T13:44:01.178Z,24.98
2019-04-03T13:46:36.454Z,24.97
2019-04-03T13:49:10.682Z,24.95
2019-04-03T13:51:44.425Z,24.94
2019-04-03T13:54:18.335Z,24.94
2019-04-03T13:56:53.778Z,24.94
2019-04-03T13:59:27.642Z,24.95
2019-04-03T14:02:01.422Z,24.95
2019-04-03T14:04:35.069Z,24.97
2019-04-03T14:07:09.680Z,24.97
2019-04-03T14:09:43.912Z,24.96
2019-04-03T14:12:17.911Z,24.98
2019-04-03T14:14:52.495Z,24.97
2019-04-03T14:17:27.562Z,24.95
2019-04-03T14:20:01.798Z,24.95
2019-04-03T14:22:36.193Z,24.97
2019-04-03T14:25:19.919Z,24.97
2019-04-03T14:27:45.404Z,24.95
2019-04-03T14:30:19.279Z,24.95
2019-04-03T14:32:54.663Z,24.97
2019-04-03T14:35:49.971Z,24.96
2019-04-03T14:38:04.367Z,24.95
2019-04-03T14:40:38.718Z,24.94
2019-04-03T14:43:12.389Z,24.94
2019-04-03T14:45:46.535Z,24.94
2019-04-03T14:48:20.677Z,24.94
2019-04-03T14:50:54.460Z,24.93
2019-04-03T14:53:28.247Z,24.95
2019-04-03T14:56:02.678Z,24.94
2019-04-03T14:58:37.543Z,24.94
2019-04-03T15:01:11.868Z,24.94
2019-04-03T15:03:45.698Z,24.94
2019-04-03T15:06:20.906Z,24.95
2019-04-03T15:08:55.482Z,24.94
2019-04-03T15:11:29.600Z,24.96
2019-04-03T15:14:05.226Z,24.95
2019-04-03T15:16:40.737Z,24.62
2019-04-03T15:19:15.223Z,24.83
2019-04-03T15:21:48.985Z,24.85
2019-04-03T15:24:23.486Z,24.89
2019-04-03T15:26:57.481Z,24.92
2019-04-03T15:29:31.143Z,24.94
2019-04-03T15:32:05.027Z,24.95
2019-04-03T15:34:38.917Z,24.94
2019-04-03T15:37:14.556Z,24.96
2019-04-03T15:39:55.791Z,24.95
2019-04-03T15:42:24.290Z,24.95
2019-04-03T15:44:59.932Z,24.97
2019-04-03T15:47:38.689Z,24.92
2019-04-03T15:50:09.810Z,24.94
2019-04-03T15:52:46.053Z,24.95
2019-04-03T15:55:18.941Z,24.96
2019-04-03T15:57:53.983Z,24.88
2019-04-03T16:00:28.375Z,24.94
2019-04-03T16:03:02.535Z,24.95
2019-04-03T16:05:37.200Z,24.96
2019-04-03T16:08:12.413Z,24.97
2019-04-03T16:10:46.353Z,24.98
2019-04-03T16:13:22.106Z,24.99
2019-04-03T16:15:59.731Z,25.00
2019-04-03T16:18:31.951Z,24.99
2019-04-03T16:21:05.776Z,24.98
2019-04-03T16:23:39.542Z,24.95
2019-04-03T16:26:13.439Z,24.98
2019-04-03T16:28:48.654Z,25.00
2019-04-03T16:31:22.686Z,25.00
2019-04-03T16:33:56.511Z,25.01
2019-04-03T16:36:30.354Z,25.01
2019-04-03T16:39:07.020Z,24.98
2019-04-03T16:41:42.488Z,24.98
2019-04-03T16:44:16.563Z,24.97
2019-04-03T16:46:50.464Z,24.98
2019-04-03T16:49:24.287Z,24.98
2019-04-03T16:51:58.022Z,25.00
2019-04-03T16:54:33.102Z,25.01
2019-04-03T16:57:07.350Z,25.00
2019-04-03T16:59:41.673Z,25.00
2019-04-03T17:02:17.714Z,25.01
2019-04-03T17:04:51.493Z,25.00
2019-04-03T17:07:25.367Z,25.01
2019-04-03T17:09:59.533Z,24.93
2019-04-03T17:12:33.839Z,24.92
2019-04-03T17:15:08.409Z,24.93
2019-04-03T17:17:44.735Z,24.93
2019-04-03T17:20:17.851Z,24.94
2019-04-03T17:22:52.487Z,24.94
2019-04-03T17:25:27.840Z,24.96
2019-04-03T17:28:07.509Z,24.96
2019-04-03T17:30:38.023Z,24.96
2019-04-03T17:33:12.020Z,24.95
2019-04-03T17:35:47.649Z,24.97
2019-04-03T17:38:21.862Z,24.97
2019-04-03T17:40:55.620Z,24.95
2019-04-03T17:43:29.391Z,24.95
2019-04-03T17:46:03.165Z,24.95
2019-04-03T17:48:36.887Z,24.94
2019-04-03T17:51:10.659Z,24.94
2019-04-03T17:53:44.548Z,24.96
2019-04-03T17:56:18.343Z,24.95
2019-04-03T17:58:52.346Z,24.97
2019-04-03T18:01:25.993Z,24.97
2019-04-03T18:03:59.718Z,24.96
2019-04-03T18:06:33.460Z,24.96
2019-04-03T18:09:09.696Z,24.97
2019-04-03T18:11:46.819Z,24.97
2019-04-03T18:14:20.609Z,24.96
2019-04-03T18:16:55.417Z,24.97
2019-04-03T18:19:37.431Z,24.97
2019-04-03T18:22:04.525Z,24.97
2019-04-03T18:24:38.253Z,24.93
2019-04-03T18:27:12.139Z,24.97
2019-04-03T18:29:45.847Z,24.98
2019-04-03T18:32:21.053Z,24.96
2019-04-03T18:34:55.515Z,24.95
2019-04-03T18:37:29.685Z,24.97
2019-04-03T18:40:04.301Z,24.97
2019-04-03T18:42:38.155Z,24.98
2019-04-03T18:45:24.601Z,24.98
2019-04-03T18:47:50.726Z,24.98
2019-04-03T18:50:24.487Z,25.01
2019-04-03T18:52:59.322Z,24.99
2019-04-03T18:55:34.716Z,24.99
2019-04-03T18:58:09.694Z,24.99
2019-04-03T19:00:44.067Z,24.99
2019-04-03T19:03:17.724Z,24.98
2019-04-03T19:05:51.617Z,24.97
2019-04-03T19:08:25.541Z,24.98
2019-04-03T19:11:02.726Z,24.97
2019-04-03T19:13:34.725Z,24.97
2019-04-03T19:16:09.094Z,24.97
2019-04-03T19:18:42.858Z,24.96
2019-04-03T19:21:24.704Z,24.96
2019-04-03T19:23:54.319Z,24.97
2019-04-03T19:26:27.696Z,24.97
2019-04-03T19:29:04.696Z,24.96
2019-04-03T19:31:39.874Z,24.95
2019-04-03T19:34:15.988Z,24.95
2019-04-03T19:36:48.147Z,24.95
2019-04-03T19:39:22.394Z,24.94
2019-04-03T19:41:56.150Z,24.95
2019-04-03T19:44:29.869Z,24.94
2019-04-03T19:47:03.587Z,24.94
2019-04-03T19:49:55.070Z,24.94
2019-04-03T19:52:46.529Z,24.94
2019-04-03T19:55:37.974Z,24.94
2019-04-03T19:58:13.536Z,24.94
2019-04-03T20:00:47.699Z,24.94
2019-04-03T20:03:21.576Z,24.94
2019-04-03T20:05:55.746Z,24.93
2019-04-03T20:08:30.031Z,24.93
2019-04-03T20:11:05.097Z,24.93
2019-04-03T20:13:40.258Z,24.93
2019-04-03T20:16:14.326Z,24.93
2019-04-03T20:18:48.426Z,24.92
2019-04-03T20:21:22.614Z,24.93
2019-04-03T20:23:56.197Z,24.93
2019-04-03T20:26:30.002Z,24.91
2019-04-03T20:29:05.315Z,24.93
2019-04-03T20:31:40.818Z,24.92
2019-04-03T20:34:14.631Z,24.92
2019-04-03T20:36:50.943Z,24.92
2019-04-03T20:39:24.273Z,24.91
2019-04-03T20:41:57.995Z,24.91
2019-04-03T20:44:32.138Z,24.91
2019-04-03T20:47:05.867Z,24.91
2019-04-03T20:49:39.652Z,24.90
2019-04-03T20:52:13.496Z,24.91
2019-04-03T20:54:47.150Z,24.90
2019-04-03T20:57:20.921Z,24.91
2019-04-03T21:00:02.058Z,24.91
2019-04-03T21:02:29.921Z,24.89
2019-04-03T21:05:03.730Z,24.89
2019-04-03T21:07:37.375Z,24.89
2019-04-03T21:10:11.329Z,24.91
2019-04-03T21:12:45.082Z,24.91
2019-04-03T21:15:19.520Z,24.89
2019-04-03T21:17:53.338Z,24.89
2019-04-03T21:20:27.067Z,24.90
2019-04-03T21:23:02.919Z,24.90
2019-04-03T21:25:36.848Z,24.88
2019-04-03T21:28:10.992Z,24.91
2019-04-03T21:30:45.460Z,24.91
2019-04-03T21:33:19.102Z,24.90
2019-04-03T21:35:53.095Z,24.90
2019-04-03T21:38:26.844Z,24.90
2019-04-03T21:41:01.187Z,24.90
2019-04-03T21:43:34.848Z,24.89
2019-04-03T21:46:08.944Z,24.89
2019-04-03T21:48:44.751Z,24.88
2019-04-03T21:51:18.935Z,24.89
2019-04-03T21:53:56.089Z,24.89
2019-04-03T21:56:31.002Z,24.88
2019-04-03T21:59:04.956Z,24.88
2019-04-03T22:01:38.775Z,24.88
2019-04-03T22:04:13.144Z,24.87
2019-04-03T22:06:46.938Z,24.87
2019-04-03T22:09:20.571Z,24.88
2019-04-03T22:11:54.307Z,24.87
2019-04-03T22:14:28.131Z,24.88
2019-04-03T22:17:03.122Z,24.87
2019-04-03T22:19:37.009Z,24.87
2019-04-03T22:22:10.829Z,24.86
2019-04-03T22:24:46.017Z,24.86
2019-04-03T22:27:19.774Z,24.87
2019-04-03T22:29:53.474Z,24.87
2019-04-03T22:32:27.222Z,24.86
2019-04-03T22:35:01.526Z,24.86
2019-04-03T22:37:35.874Z,24.86
2019-04-03T22:40:10.749Z,24.86
2019-04-03T22:42:45.619Z,24.86
2019-04-03T22:45:20.095Z,24.85
2019-04-03T22:47:56.110Z,24.85
2019-04-03T22:50:29.630Z,24.85
2019-04-03T22:53:03.283Z,24.86
2019-04-03T22:55:37.236Z,24.85
2019-04-03T22:58:10.966Z,24.85
2019-04-03T23:00:44.773Z,24.85
2019-04-03T23:03:18.420Z,24.85
2019-04-03T23:05:52.393Z,24.85
2019-04-03T23:08:26.186Z,24.85
2019-04-03T23:11:01.329Z,24.85
2019-04-03T23:13:35.668Z,24.85
2019-04-03T23:16:11.634Z,24.85
2019-04-03T23:18:46.905Z,24.84
2019-04-03T23:21:23.467Z,24.85
2019-04-03T23:23:57.959Z,24.85
2019-04-03T23:26:32.820Z,24.84
2019-04-03T23:29:06.748Z,24.86
2019-04-03T23:31:40.615Z,24.83
2019-04-03T23:34:14.345Z,24.85
2019-04-03T23:36:48.194Z,24.85
2019-04-03T23:39:22.190Z,24.84
2019-04-03T23:41:55.948Z,24.84
2019-04-03T23:44:29.536Z,24.84
2019-04-03T23:47:03.440Z,24.84
2019-04-03T23:49:37.134Z,24.84
2019-04-03T23:52:10.865Z,24.85
2019-04-03T23:54:44.610Z,24.85
2019-04-03T23:57:18.387Z,24.84
2019-04-03T23:59:52.384Z,24.85
